TimeCST,TemperatureF,Dew PointF,Humidity,Sea Level PressureIn,VisibilityMPH,Wind Direction,Wind SpeedMPH,Gust SpeedMPH,PrecipitationIn,Events,Conditions,WindDirDegrees,DateUTC
12:51 AM,52.0,44.1,74,30.20,10.0,SW,6.9,-,N/A,,Overcast,220,2013-11-05 06:51:00
1:51 AM,52.0,44.1,74,30.21,10.0,SSW,8.1,-,N/A,,Overcast,200,2013-11-05 07:51:00
2:51 AM,52.0,44.1,74,30.21,10.0,South,8.1,-,N/A,,Overcast,190,2013-11-05 08:51:00
3:51 AM,51.1,45.0,80,30.23,10.0,South,3.5,-,N/A,,Overcast,190,2013-11-05 09:51:00
4:51 AM,50.0,45.0,83,30.23,10.0,South,4.6,-,N/A,,Overcast,170,2013-11-05 10:51:00
5:51 AM,51.1,45.0,80,30.24,10.0,South,6.9,-,N/A,,Overcast,170,2013-11-05 11:51:00
6:51 AM,50.0,45.0,83,30.25,10.0,South,4.6,-,N/A,,Overcast,180,2013-11-05 12:51:00
7:51 AM,51.1,45.0,80,30.27,10.0,South,3.5,-,N/A,,Overcast,180,2013-11-05 13:51:00
8:51 AM,53.1,46.0,77,30.25,10.0,South,8.1,-,N/A,,Mostly Cloudy,190,2013-11-05 14:51:00
9:51 AM,54.0,46.9,77,30.26,10.0,South,8.1,-,N/A,,Overcast,190,2013-11-05 15:51:00
10:51 AM,54.0,48.0,80,30.25,10.0,South,5.8,-,N/A,,Overcast,180,2013-11-05 16:51:00
11:51 AM,54.0,48.0,80,30.23,10.0,South,12.7,-,N/A,,Overcast,170,2013-11-05 17:51:00
12:51 PM,53.1,48.9,86,30.20,10.0,South,15.0,-,0.00,Rain,Light Rain,180,2013-11-05 18:51:00
1:04 PM,53.6,50.0,88,30.19,6.0,South,15.0,-,0.00,Rain,Light Rain,190,2013-11-05 19:04:00
1:51 PM,53.1,51.1,93,30.18,10.0,South,9.2,-,0.01,,Overcast,180,2013-11-05 19:51:00
2:28 PM,53.6,51.8,94,30.16,10.0,South,11.5,-,0.00,Rain,Light Rain,180,2013-11-05 20:28:00
2:51 PM,53.1,51.1,93,30.16,9.0,South,9.2,-,0.00,,Overcast,180,2013-11-05 20:51:00
3:13 PM,53.6,50.0,88,30.14,10.0,South,15.0,-,N/A,,Overcast,170,2013-11-05 21:13:00
3:34 PM,53.6,50.0,88,30.13,10.0,South,12.7,-,N/A,,Overcast,170,2013-11-05 21:34:00
3:51 PM,53.1,50.0,89,30.14,10.0,South,12.7,-,0.00,Rain,Light Rain,170,2013-11-05 21:51:00
3:59 PM,53.6,50.0,88,30.13,9.0,SSE,11.5,-,0.00,Rain,Light Rain,160,2013-11-05 21:59:00
4:51 PM,53.1,50.0,89,30.11,7.0,SSE,11.5,-,0.01,Rain,Light Rain,160,2013-11-05 22:51:00
5:51 PM,53.1,48.9,86,30.10,10.0,SSE,11.5,-,0.00,,Overcast,160,2013-11-05 23:51:00
6:51 PM,53.1,46.9,80,30.09,10.0,SSE,16.1,-,N/A,,Overcast,160,2013-11-06 00:51:00
7:51 PM,53.1,46.0,77,30.06,10.0,SSE,17.3,21.9,N/A,,Overcast,160,2013-11-06 01:51:00
8:51 PM,54.0,45.0,72,30.02,10.0,South,16.1,-,N/A,,Overcast,170,2013-11-06 02:51:00
9:51 PM,54.0,48.0,80,30.01,10.0,South,21.9,32.2,N/A,,Overcast,180,2013-11-06 03:51:00
10:08 PM,53.6,48.2,82,30.00,8.0,South,23.0,31.1,0.00,Rain,Light Rain,180,2013-11-06 04:08:00
10:22 PM,51.8,50.0,94,30.00,3.0,South,20.7,31.1,0.01,Rain,Light Rain,180,2013-11-06 04:22:00
10:37 PM,51.8,50.0,94,29.99,5.0,South,18.4,-,0.02,Rain,Light Rain,180,2013-11-06 04:37:00
10:51 PM,52.0,50.0,93,29.99,9.0,South,17.3,-,0.02,Rain,Light Rain,170,2013-11-06 04:51:00
10:53 PM,51.8,50.0,94,29.98,9.0,South,15.0,-,0.00,Rain,Light Rain,170,2013-11-06 04:53:00
11:00 PM,51.8,50.0,94,29.97,10.0,South,15.0,23.0,0.00,Rain,Light Rain,170,2013-11-06 05:00:00
11:51 PM,54.0,48.9,83,29.95,10.0,South,19.6,28.8,0.00,,Overcast,180,2013-11-06 05:51:00